sensor_id;sensor_type;location;lat;lon;timestamp;temperature;humidity
62583;DHT22;48641;51.676;5.808;2022-10-31T00:00:59;19.40;68.20
62583;DHT22;48641;51.676;5.808;2022-10-31T00:03:24;19.40;68.20
62583;DHT22;48641;51.676;5.808;2022-10-31T00:05:52;19.40;68.20
62583;DHT22;48641;51.676;5.808;2022-10-31T00:08:18;19.30;68.20
62583;DHT22;48641;51.676;5.808;2022-10-31T00:10:45;19.30;68.20
62583;DHT22;48641;51.676;5.808;2022-10-31T00:13:12;19.30;68.20
62583;DHT22;48641;51.676;5.808;2022-10-31T00:15:39;19.30;68.20
62583;DHT22;48641;51.676;5.808;2022-10-31T00:18:06;19.30;68.20
62583;DHT22;48641;51.676;5.808;2022-10-31T00:20:32;19.30;68.20
62583;DHT22;48641;51.676;5.808;2022-10-31T00:22:58;19.30;68.20
62583;DHT22;48641;51.676;5.808;2022-10-31T00:25:24;19.30;68.20
62583;DHT22;48641;51.676;5.808;2022-10-31T00:27:50;19.30;68.20
62583;DHT22;48641;51.676;5.808;2022-10-31T00:30:15;19.30;69.20
62583;DHT22;48641;51.676;5.808;2022-10-31T00:32:41;19.30;68.10
62583;DHT22;48641;51.676;5.808;2022-10-31T00:35:07;19.30;68.20
62583;DHT22;48641;51.676;5.808;2022-10-31T00:37:32;19.30;68.20
62583;DHT22;48641;51.676;5.808;2022-10-31T00:39:58;19.30;68.30
62583;DHT22;48641;51.676;5.808;2022-10-31T00:42:24;19.30;68.30
62583;DHT22;48641;51.676;5.808;2022-10-31T00:44:49;19.30;68.20
62583;DHT22;48641;51.676;5.808;2022-10-31T00:47:15;19.30;68.20
62583;DHT22;48641;51.676;5.808;2022-10-31T00:49:40;19.30;68.20
62583;DHT22;48641;51.676;5.808;2022-10-31T00:52:06;19.30;68.30
62583;DHT22;48641;51.676;5.808;2022-10-31T00:54:31;19.30;68.20
62583;DHT22;48641;51.676;5.808;2022-10-31T00:56:57;19.30;68.20
62583;DHT22;48641;51.676;5.808;2022-10-31T00:59:23;19.30;68.30
62583;DHT22;48641;51.676;5.808;2022-10-31T01:01:48;19.30;68.20
62583;DHT22;48641;51.676;5.808;2022-10-31T01:04:14;19.30;68.20
62583;DHT22;48641;51.676;5.808;2022-10-31T01:06:40;19.30;68.20
62583;DHT22;48641;51.676;5.808;2022-10-31T01:09:06;19.30;68.20
62583;DHT22;48641;51.676;5.808;2022-10-31T01:11:32;19.30;68.30
62583;DHT22;48641;51.676;5.808;2022-10-31T01:13:57;19.30;68.20
62583;DHT22;48641;51.676;5.808;2022-10-31T01:16:24;19.30;68.20
62583;DHT22;48641;51.676;5.808;2022-10-31T01:18:51;19.30;68.20
62583;DHT22;48641;51.676;5.808;2022-10-31T01:21:19;19.20;68.10
62583;DHT22;48641;51.676;5.808;2022-10-31T01:23:45;19.20;68.10
62583;DHT22;48641;51.676;5.808;2022-10-31T01:26:14;19.20;68.10
62583;DHT22;48641;51.676;5.808;2022-10-31T01:29:00;19.20;68.20
62583;DHT22;48641;51.676;5.808;2022-10-31T01:31:29;19.20;68.10
62583;DHT22;48641;51.676;5.808;2022-10-31T01:33:56;19.20;68.20
62583;DHT22;48641;51.676;5.808;2022-10-31T01:36:24;19.20;68.20
62583;DHT22;48641;51.676;5.808;2022-10-31T01:38:52;19.20;68.20
62583;DHT22;48641;51.676;5.808;2022-10-31T01:41:20;19.20;68.20
62583;DHT22;48641;51.676;5.808;2022-10-31T01:43:48;19.20;68.20
62583;DHT22;48641;51.676;5.808;2022-10-31T01:46:17;19.20;68.20
62583;DHT22;48641;51.676;5.808;2022-10-31T01:48:44;19.20;68.20
62583;DHT22;48641;51.676;5.808;2022-10-31T01:51:11;19.20;68.20
62583;DHT22;48641;51.676;5.808;2022-10-31T01:53:39;19.20;68.20
62583;DHT22;48641;51.676;5.808;2022-10-31T01:56:05;19.20;68.20
62583;DHT22;48641;51.676;5.808;2022-10-31T01:58:31;19.20;68.10
62583;DHT22;48641;51.676;5.808;2022-10-31T02:00:59;19.20;68.20
62583;DHT22;48641;51.676;5.808;2022-10-31T02:03:25;19.20;68.10
62583;DHT22;48641;51.676;5.808;2022-10-31T02:05:53;19.20;68.20
62583;DHT22;48641;51.676;5.808;2022-10-31T02:08:30;19.20;68.20
62583;DHT22;48641;51.676;5.808;2022-10-31T02:10:58;19.20;68.10
62583;DHT22;48641;51.676;5.808;2022-10-31T02:13:26;19.20;68.20
62583;DHT22;48641;51.676;5.808;2022-10-31T02:15:55;19.10;68.00
62583;DHT22;48641;51.676;5.808;2022-10-31T02:18:22;19.10;68.10
62583;DHT22;48641;51.676;5.808;2022-10-31T02:26:36;19.10;68.00
62583;DHT22;48641;51.676;5.808;2022-10-31T02:37:29;19.10;68.20
62583;DHT22;48641;51.676;5.808;2022-10-31T02:47:44;19.10;68.20
62583;DHT22;48641;51.676;5.808;2022-10-31T02:50:20;19.10;68.20
62583;DHT22;48641;51.676;5.808;2022-10-31T02:52:50;19.00;68.20
62583;DHT22;48641;51.676;5.808;2022-10-31T02:57:48;19.10;68.20
62583;DHT22;48641;51.676;5.808;2022-10-31T03:00:15;19.00;68.10
62583;DHT22;48641;51.676;5.808;2022-10-31T03:03:10;19.10;68.20
62583;DHT22;48641;51.676;5.808;2022-10-31T03:06:02;19.10;68.10
62583;DHT22;48641;51.676;5.808;2022-10-31T03:08:50;19.10;68.20
62583;DHT22;48641;51.676;5.808;2022-10-31T03:11:24;19.00;68.10
62583;DHT22;48641;51.676;5.808;2022-10-31T03:14:10;19.00;68.30
62583;DHT22;48641;51.676;5.808;2022-10-31T03:16:48;19.00;68.10
62583;DHT22;48641;51.676;5.808;2022-10-31T03:24:15;19.00;68.20
62583;DHT22;48641;51.676;5.808;2022-10-31T03:26:44;19.00;68.30
62583;DHT22;48641;51.676;5.808;2022-10-31T03:29:15;19.00;68.30
62583;DHT22;48641;51.676;5.808;2022-10-31T03:31:51;19.00;68.20
62583;DHT22;48641;51.676;5.808;2022-10-31T03:34:19;19.00;68.20
62583;DHT22;48641;51.676;5.808;2022-10-31T03:36:48;18.90;68.20
62583;DHT22;48641;51.676;5.808;2022-10-31T03:39:17;19.00;68.20
62583;DHT22;48641;51.676;5.808;2022-10-31T03:41:49;18.90;68.10
62583;DHT22;48641;51.676;5.808;2022-10-31T03:44:19;18.90;68.20
62583;DHT22;48641;51.676;5.808;2022-10-31T03:46:45;18.90;68.20
62583;DHT22;48641;51.676;5.808;2022-10-31T03:49:11;18.90;68.20
62583;DHT22;48641;51.676;5.808;2022-10-31T03:51:47;18.90;68.20
62583;DHT22;48641;51.676;5.808;2022-10-31T03:54:46;18.90;68.20
62583;DHT22;48641;51.676;5.808;2022-10-31T03:57:35;18.90;68.10
62583;DHT22;48641;51.676;5.808;2022-10-31T04:02:34;18.90;68.30
62583;DHT22;48641;51.676;5.808;2022-10-31T04:05:03;18.90;68.20
62583;DHT22;48641;51.676;5.808;2022-10-31T04:07:33;18.90;68.20
62583;DHT22;48641;51.676;5.808;2022-10-31T04:10:02;18.90;68.20
62583;DHT22;48641;51.676;5.808;2022-10-31T04:12:29;18.90;68.20
62583;DHT22;48641;51.676;5.808;2022-10-31T04:14:57;18.80;68.20
62583;DHT22;48641;51.676;5.808;2022-10-31T04:17:27;18.80;68.50
62583;DHT22;48641;51.676;5.808;2022-10-31T04:19:54;18.80;68.50
62583;DHT22;48641;51.676;5.808;2022-10-31T04:22:20;18.80;68.40
62583;DHT22;48641;51.676;5.808;2022-10-31T04:24:46;18.80;68.30
62583;DHT22;48641;51.676;5.808;2022-10-31T04:27:11;18.80;68.30
62583;DHT22;48641;51.676;5.808;2022-10-31T04:29:37;18.80;68.30
62583;DHT22;48641;51.676;5.808;2022-10-31T04:32:02;18.80;68.20
62583;DHT22;48641;51.676;5.808;2022-10-31T04:34:28;18.80;68.20
62583;DHT22;48641;51.676;5.808;2022-10-31T04:36:53;18.80;68.20
62583;DHT22;48641;51.676;5.808;2022-10-31T04:39:19;18.80;68.20
62583;DHT22;48641;51.676;5.808;2022-10-31T04:41:44;18.80;68.20
62583;DHT22;48641;51.676;5.808;2022-10-31T04:44:10;18.80;68.20
62583;DHT22;48641;51.676;5.808;2022-10-31T04:46:36;18.80;68.20
62583;DHT22;48641;51.676;5.808;2022-10-31T04:49:02;18.80;68.10
62583;DHT22;48641;51.676;5.808;2022-10-31T04:51:28;18.80;68.20
62583;DHT22;48641;51.676;5.808;2022-10-31T04:53:53;18.80;68.10
62583;DHT22;48641;51.676;5.808;2022-10-31T04:56:19;18.80;68.00
62583;DHT22;48641;51.676;5.808;2022-10-31T04:58:45;18.80;68.10
62583;DHT22;48641;51.676;5.808;2022-10-31T05:01:10;18.80;68.10
62583;DHT22;48641;51.676;5.808;2022-10-31T05:03:36;18.80;68.10
62583;DHT22;48641;51.676;5.808;2022-10-31T05:06:01;18.80;68.10
62583;DHT22;48641;51.676;5.808;2022-10-31T05:08:27;18.80;68.10
62583;DHT22;48641;51.676;5.808;2022-10-31T05:10:52;18.80;68.00
62583;DHT22;48641;51.676;5.808;2022-10-31T05:13:18;18.80;68.00
62583;DHT22;48641;51.676;5.808;2022-10-31T05:15:44;18.80;68.00
62583;DHT22;48641;51.676;5.808;2022-10-31T05:18:09;18.80;68.00
62583;DHT22;48641;51.676;5.808;2022-10-31T05:20:35;18.80;68.00
62583;DHT22;48641;51.676;5.808;2022-10-31T05:23:00;18.70;68.00
62583;DHT22;48641;51.676;5.808;2022-10-31T05:25:27;18.80;68.00
62583;DHT22;48641;51.676;5.808;2022-10-31T05:27:54;18.80;68.00
62583;DHT22;48641;51.676;5.808;2022-10-31T05:30:23;18.70;67.90
62583;DHT22;48641;51.676;5.808;2022-10-31T05:32:50;18.70;67.90
62583;DHT22;48641;51.676;5.808;2022-10-31T05:35:18;18.70;67.90
62583;DHT22;48641;51.676;5.808;2022-10-31T05:37:44;18.70;68.00
62583;DHT22;48641;51.676;5.808;2022-10-31T05:40:11;18.70;68.00
62583;DHT22;48641;51.676;5.808;2022-10-31T05:42:41;18.70;68.00
62583;DHT22;48641;51.676;5.808;2022-10-31T05:45:08;18.70;68.00
62583;DHT22;48641;51.676;5.808;2022-10-31T05:47:34;18.70;68.00
62583;DHT22;48641;51.676;5.808;2022-10-31T05:50:00;18.70;68.00
62583;DHT22;48641;51.676;5.808;2022-10-31T05:52:25;18.70;68.00
62583;DHT22;48641;51.676;5.808;2022-10-31T05:54:51;18.70;68.00
62583;DHT22;48641;51.676;5.808;2022-10-31T05:57:16;18.70;68.10
62583;DHT22;48641;51.676;5.808;2022-10-31T05:59:42;18.70;68.00
62583;DHT22;48641;51.676;5.808;2022-10-31T06:02:07;18.70;68.00
62583;DHT22;48641;51.676;5.808;2022-10-31T06:04:33;18.60;67.90
62583;DHT22;48641;51.676;5.808;2022-10-31T06:06:58;18.70;67.90
62583;DHT22;48641;51.676;5.808;2022-10-31T06:09:24;18.60;68.00
62583;DHT22;48641;51.676;5.808;2022-10-31T06:11:49;18.60;68.00
62583;DHT22;48641;51.676;5.808;2022-10-31T06:14:15;18.60;68.00
62583;DHT22;48641;51.676;5.808;2022-10-31T06:16:40;18.60;67.90
62583;DHT22;48641;51.676;5.808;2022-10-31T06:19:06;18.60;68.00
62583;DHT22;48641;51.676;5.808;2022-10-31T06:21:32;18.60;68.00
62583;DHT22;48641;51.676;5.808;2022-10-31T06:23:57;18.60;67.90
62583;DHT22;48641;51.676;5.808;2022-10-31T06:26:23;18.60;67.90
62583;DHT22;48641;51.676;5.808;2022-10-31T06:28:48;18.60;67.90
62583;DHT22;48641;51.676;5.808;2022-10-31T06:31:14;18.60;67.90
62583;DHT22;48641;51.676;5.808;2022-10-31T06:33:43;18.60;67.90
62583;DHT22;48641;51.676;5.808;2022-10-31T06:36:09;18.60;67.90
62583;DHT22;48641;51.676;5.808;2022-10-31T06:38:34;18.60;67.90
62583;DHT22;48641;51.676;5.808;2022-10-31T06:41:04;18.60;68.00
62583;DHT22;48641;51.676;5.808;2022-10-31T06:43:31;18.60;67.80
62583;DHT22;48641;51.676;5.808;2022-10-31T06:45:56;18.60;67.90
62583;DHT22;48641;51.676;5.808;2022-10-31T06:48:23;18.60;67.90
62583;DHT22;48641;51.676;5.808;2022-10-31T06:50:48;18.60;67.90
62583;DHT22;48641;51.676;5.808;2022-10-31T06:53:14;18.60;67.90
62583;DHT22;48641;51.676;5.808;2022-10-31T06:55:40;18.60;67.90
62583;DHT22;48641;51.676;5.808;2022-10-31T06:58:06;18.50;67.90
62583;DHT22;48641;51.676;5.808;2022-10-31T07:00:32;18.50;67.80
62583;DHT22;48641;51.676;5.808;2022-10-31T07:03:02;18.60;67.90
62583;DHT22;48641;51.676;5.808;2022-10-31T07:05:29;18.60;67.80
62583;DHT22;48641;51.676;5.808;2022-10-31T07:07:56;18.50;67.80
62583;DHT22;48641;51.676;5.808;2022-10-31T07:10:23;18.60;67.90
62583;DHT22;48641;51.676;5.808;2022-10-31T07:13:03;18.50;67.90
62583;DHT22;48641;51.676;5.808;2022-10-31T07:15:32;18.50;67.80
62583;DHT22;48641;51.676;5.808;2022-10-31T07:18:06;18.50;67.80
62583;DHT22;48641;51.676;5.808;2022-10-31T07:20:32;18.50;67.80
62583;DHT22;48641;51.676;5.808;2022-10-31T07:22:58;18.50;67.90
62583;DHT22;48641;51.676;5.808;2022-10-31T07:25:25;18.50;67.90
62583;DHT22;48641;51.676;5.808;2022-10-31T07:27:51;18.50;67.90
62583;DHT22;48641;51.676;5.808;2022-10-31T07:30:17;18.50;67.90
62583;DHT22;48641;51.676;5.808;2022-10-31T07:32:50;18.50;67.90
62583;DHT22;48641;51.676;5.808;2022-10-31T07:35:25;18.50;67.90
62583;DHT22;48641;51.676;5.808;2022-10-31T07:37:51;18.50;67.90
62583;DHT22;48641;51.676;5.808;2022-10-31T07:40:17;18.50;67.90
62583;DHT22;48641;51.676;5.808;2022-10-31T07:42:45;18.50;67.90
62583;DHT22;48641;51.676;5.808;2022-10-31T07:45:15;18.50;67.90
62583;DHT22;48641;51.676;5.808;2022-10-31T07:47:50;18.50;67.90
62583;DHT22;48641;51.676;5.808;2022-10-31T07:50:27;18.50;67.80
62583;DHT22;48641;51.676;5.808;2022-10-31T07:53:10;18.50;67.90
62583;DHT22;48641;51.676;5.808;2022-10-31T07:55:37;18.50;67.80
62583;DHT22;48641;51.676;5.808;2022-10-31T07:58:03;18.40;67.90
62583;DHT22;48641;51.676;5.808;2022-10-31T08:00:30;18.40;67.90
62583;DHT22;48641;51.676;5.808;2022-10-31T08:03:04;18.40;67.90
62583;DHT22;48641;51.676;5.808;2022-10-31T08:05:31;18.40;67.90
62583;DHT22;48641;51.676;5.808;2022-10-31T08:07:57;18.40;67.90
62583;DHT22;48641;51.676;5.808;2022-10-31T08:10:23;18.40;67.90
62583;DHT22;48641;51.676;5.808;2022-10-31T08:13:18;18.40;67.90
62583;DHT22;48641;51.676;5.808;2022-10-31T08:15:44;18.50;67.70
62583;DHT22;48641;51.676;5.808;2022-10-31T08:18:15;18.40;68.00
62583;DHT22;48641;51.676;5.808;2022-10-31T08:20:41;18.40;67.90
62583;DHT22;48641;51.676;5.808;2022-10-31T08:23:08;18.40;67.90
62583;DHT22;48641;51.676;5.808;2022-10-31T08:25:35;18.40;67.90
62583;DHT22;48641;51.676;5.808;2022-10-31T08:28:01;18.40;67.80
62583;DHT22;48641;51.676;5.808;2022-10-31T08:30:29;18.40;67.80
62583;DHT22;48641;51.676;5.808;2022-10-31T08:33:00;18.40;67.80
62583;DHT22;48641;51.676;5.808;2022-10-31T08:35:25;18.40;67.80
62583;DHT22;48641;51.676;5.808;2022-10-31T08:37:55;18.40;67.90
62583;DHT22;48641;51.676;5.808;2022-10-31T08:40:21;18.40;67.80
62583;DHT22;48641;51.676;5.808;2022-10-31T08:42:47;18.40;67.80
62583;DHT22;48641;51.676;5.808;2022-10-31T08:45:12;18.40;67.70
62583;DHT22;48641;51.676;5.808;2022-10-31T08:47:38;18.40;67.70
62583;DHT22;48641;51.676;5.808;2022-10-31T08:50:04;18.40;67.80
62583;DHT22;48641;51.676;5.808;2022-10-31T08:52:29;18.40;67.70
62583;DHT22;48641;51.676;5.808;2022-10-31T08:54:55;18.40;67.80
62583;DHT22;48641;51.676;5.808;2022-10-31T08:57:20;18.40;67.80
62583;DHT22;48641;51.676;5.808;2022-10-31T08:59:46;18.40;67.70
62583;DHT22;48641;51.676;5.808;2022-10-31T09:02:12;18.40;67.80
62583;DHT22;48641;51.676;5.808;2022-10-31T09:04:37;18.40;67.80
62583;DHT22;48641;51.676;5.808;2022-10-31T09:07:03;18.40;67.90
62583;DHT22;48641;51.676;5.808;2022-10-31T09:09:28;18.40;67.80
62583;DHT22;48641;51.676;5.808;2022-10-31T09:11:54;18.40;67.80
62583;DHT22;48641;51.676;5.808;2022-10-31T09:14:19;18.40;67.90
62583;DHT22;48641;51.676;5.808;2022-10-31T09:16:45;18.40;68.10
62583;DHT22;48641;51.676;5.808;2022-10-31T09:19:10;18.40;68.20
62583;DHT22;48641;51.676;5.808;2022-10-31T09:21:36;18.40;68.40
62583;DHT22;48641;51.676;5.808;2022-10-31T09:24:01;18.40;68.40
62583;DHT22;48641;51.676;5.808;2022-10-31T09:26:27;18.40;68.30
62583;DHT22;48641;51.676;5.808;2022-10-31T09:28:52;18.40;68.20
62583;DHT22;48641;51.676;5.808;2022-10-31T09:31:18;18.40;68.30
62583;DHT22;48641;51.676;5.808;2022-10-31T09:33:43;18.40;68.30
62583;DHT22;48641;51.676;5.808;2022-10-31T09:36:09;18.40;68.30
62583;DHT22;48641;51.676;5.808;2022-10-31T09:38:34;18.40;68.30
62583;DHT22;48641;51.676;5.808;2022-10-31T09:41:14;18.40;68.30
62583;DHT22;48641;51.676;5.808;2022-10-31T09:43:54;18.40;68.30
62583;DHT22;48641;51.676;5.808;2022-10-31T09:47:20;18.40;68.40
62583;DHT22;48641;51.676;5.808;2022-10-31T09:50:02;18.40;68.20
62583;DHT22;48641;51.676;5.808;2022-10-31T09:52:36;18.40;68.40
62583;DHT22;48641;51.676;5.808;2022-10-31T09:55:30;18.40;68.50
62583;DHT22;48641;51.676;5.808;2022-10-31T09:57:58;18.40;68.40
62583;DHT22;48641;51.676;5.808;2022-10-31T10:00:24;18.40;68.60
62583;DHT22;48641;51.676;5.808;2022-10-31T10:03:04;18.30;68.40
62583;DHT22;48641;51.676;5.808;2022-10-31T10:05:48;18.40;68.50
62583;DHT22;48641;51.676;5.808;2022-10-31T10:08:18;18.40;68.40
62583;DHT22;48641;51.676;5.808;2022-10-31T10:32:32;18.40;68.60
62583;DHT22;48641;51.676;5.808;2022-10-31T10:35:34;18.40;68.60
62583;DHT22;48641;51.676;5.808;2022-10-31T10:38:13;18.40;68.50
62583;DHT22;48641;51.676;5.808;2022-10-31T10:40:40;18.40;68.70
62583;DHT22;48641;51.676;5.808;2022-10-31T10:43:24;18.40;68.80
62583;DHT22;48641;51.676;5.808;2022-10-31T10:52:12;18.50;69.70
62583;DHT22;48641;51.676;5.808;2022-10-31T10:54:41;18.50;69.10
62583;DHT22;48641;51.676;5.808;2022-10-31T10:59:46;18.40;69.30
62583;DHT22;48641;51.676;5.808;2022-10-31T11:02:21;18.40;69.60
62583;DHT22;48641;51.676;5.808;2022-10-31T11:04:52;18.50;69.70
62583;DHT22;48641;51.676;5.808;2022-10-31T11:07:19;18.50;69.60
62583;DHT22;48641;51.676;5.808;2022-10-31T11:09:45;18.50;69.50
62583;DHT22;48641;51.676;5.808;2022-10-31T11:12:24;18.50;69.60
62583;DHT22;48641;51.676;5.808;2022-10-31T11:14:56;18.60;69.70
62583;DHT22;48641;51.676;5.808;2022-10-31T11:17:27;18.50;69.80
62583;DHT22;48641;51.676;5.808;2022-10-31T11:22:26;18.60;69.70
62583;DHT22;48641;51.676;5.808;2022-10-31T11:24:52;18.60;69.60
62583;DHT22;48641;51.676;5.808;2022-10-31T11:27:22;18.60;69.60
62583;DHT22;48641;51.676;5.808;2022-10-31T11:29:49;18.60;69.50
62583;DHT22;48641;51.676;5.808;2022-10-31T11:32:24;18.60;69.50
62583;DHT22;48641;51.676;5.808;2022-10-31T11:34:54;18.60;69.60
62583;DHT22;48641;51.676;5.808;2022-10-31T11:37:24;18.70;69.60
62583;DHT22;48641;51.676;5.808;2022-10-31T11:39:59;18.70;69.60
62583;DHT22;48641;51.676;5.808;2022-10-31T11:42:37;18.70;69.60
62583;DHT22;48641;51.676;5.808;2022-10-31T11:45:27;18.70;69.70
62583;DHT22;48641;51.676;5.808;2022-10-31T11:47:55;18.70;69.50
62583;DHT22;48641;51.676;5.808;2022-10-31T11:50:32;18.70;69.50
62583;DHT22;48641;51.676;5.808;2022-10-31T11:53:00;18.70;69.50
62583;DHT22;48641;51.676;5.808;2022-10-31T11:55:36;18.70;69.50
62583;DHT22;48641;51.676;5.808;2022-10-31T11:58:02;18.70;69.40
62583;DHT22;48641;51.676;5.808;2022-10-31T12:00:40;18.70;69.50
62583;DHT22;48641;51.676;5.808;2022-10-31T12:05:53;18.80;69.50
62583;DHT22;48641;51.676;5.808;2022-10-31T12:08:22;18.70;69.50
62583;DHT22;48641;51.676;5.808;2022-10-31T12:10:56;18.70;69.50
62583;DHT22;48641;51.676;5.808;2022-10-31T12:13:33;18.70;69.80
62583;DHT22;48641;51.676;5.808;2022-10-31T12:16:28;18.80;69.80
62583;DHT22;48641;51.676;5.808;2022-10-31T12:19:24;18.80;70.60
62583;DHT22;48641;51.676;5.808;2022-10-31T12:22:27;18.80;69.70
62583;DHT22;48641;51.676;5.808;2022-10-31T12:25:10;18.80;69.70
62583;DHT22;48641;51.676;5.808;2022-10-31T12:28:13;18.80;69.70
62583;DHT22;48641;51.676;5.808;2022-10-31T12:33:52;18.80;69.70
62583;DHT22;48641;51.676;5.808;2022-10-31T12:36:47;18.80;69.80
62583;DHT22;48641;51.676;5.808;2022-10-31T12:41:47;18.70;69.80
62583;DHT22;48641;51.676;5.808;2022-10-31T12:52:39;18.70;69.70
62583;DHT22;48641;51.676;5.808;2022-10-31T12:55:41;18.80;69.80
62583;DHT22;48641;51.676;5.808;2022-10-31T12:58:29;18.80;69.60
62583;DHT22;48641;51.676;5.808;2022-10-31T13:03:51;18.80;69.80
62583;DHT22;48641;51.676;5.808;2022-10-31T13:06:21;18.80;69.70
62583;DHT22;48641;51.676;5.808;2022-10-31T13:08:52;18.80;69.90
62583;DHT22;48641;51.676;5.808;2022-10-31T13:11:23;18.80;70.00
62583;DHT22;48641;51.676;5.808;2022-10-31T13:14:04;18.80;70.00
62583;DHT22;48641;51.676;5.808;2022-10-31T13:16:36;18.80;69.90
62583;DHT22;48641;51.676;5.808;2022-10-31T13:19:20;18.90;69.90
62583;DHT22;48641;51.676;5.808;2022-10-31T13:22:16;18.90;69.80
62583;DHT22;48641;51.676;5.808;2022-10-31T13:25:02;18.90;69.70
62583;DHT22;48641;51.676;5.808;2022-10-31T13:27:39;18.90;70.70
62583;DHT22;48641;51.676;5.808;2022-10-31T13:30:21;18.90;69.70
62583;DHT22;48641;51.676;5.808;2022-10-31T13:35:52;18.90;69.70
62583;DHT22;48641;51.676;5.808;2022-10-31T13:46:38;18.90;69.50
62583;DHT22;48641;51.676;5.808;2022-10-31T13:49:21;19.00;69.40
62583;DHT22;48641;51.676;5.808;2022-10-31T13:51:48;18.90;69.50
62583;DHT22;48641;51.676;5.808;2022-10-31T13:56:53;19.00;69.70
62583;DHT22;48641;51.676;5.808;2022-10-31T13:59:25;19.00;69.80
62583;DHT22;48641;51.676;5.808;2022-10-31T14:01:58;19.00;69.60
62583;DHT22;48641;51.676;5.808;2022-10-31T14:04:38;19.00;69.60
62583;DHT22;48641;51.676;5.808;2022-10-31T14:07:09;19.00;69.50
62583;DHT22;48641;51.676;5.808;2022-10-31T14:09:54;19.00;69.60
62583;DHT22;48641;51.676;5.808;2022-10-31T14:12:37;19.00;69.40
62583;DHT22;48641;51.676;5.808;2022-10-31T14:15:05;19.00;69.60
62583;DHT22;48641;51.676;5.808;2022-10-31T14:17:48;19.00;69.60
62583;DHT22;48641;51.676;5.808;2022-10-31T14:22:41;19.00;69.60
62583;DHT22;48641;51.676;5.808;2022-10-31T14:25:30;19.10;69.50
62583;DHT22;48641;51.676;5.808;2022-10-31T14:27:57;19.10;69.40
62583;DHT22;48641;51.676;5.808;2022-10-31T14:30:25;19.10;69.50
62583;DHT22;48641;51.676;5.808;2022-10-31T14:32:59;19.10;69.50
62583;DHT22;48641;51.676;5.808;2022-10-31T14:35:49;19.10;69.50
62583;DHT22;48641;51.676;5.808;2022-10-31T14:41:19;19.10;69.50
62583;DHT22;48641;51.676;5.808;2022-10-31T14:47:15;19.10;69.30
62583;DHT22;48641;51.676;5.808;2022-10-31T14:52:36;19.10;69.40
62583;DHT22;48641;51.676;5.808;2022-10-31T14:55:06;19.10;69.60
62583;DHT22;48641;51.676;5.808;2022-10-31T14:57:36;19.10;69.60
62583;DHT22;48641;51.676;5.808;2022-10-31T15:00:16;19.10;69.60
62583;DHT22;48641;51.676;5.808;2022-10-31T15:03:16;19.10;69.60
62583;DHT22;48641;51.676;5.808;2022-10-31T15:05:52;19.10;69.70
62583;DHT22;48641;51.676;5.808;2022-10-31T15:10:52;19.10;69.90
62583;DHT22;48641;51.676;5.808;2022-10-31T15:13:20;19.10;69.80
62583;DHT22;48641;51.676;5.808;2022-10-31T15:15:47;19.10;69.80
62583;DHT22;48641;51.676;5.808;2022-10-31T15:18:17;19.10;69.90
62583;DHT22;48641;51.676;5.808;2022-10-31T15:20:44;19.10;70.00
62583;DHT22;48641;51.676;5.808;2022-10-31T15:23:16;19.10;69.80
62583;DHT22;48641;51.676;5.808;2022-10-31T15:25:43;19.10;69.70
62583;DHT22;48641;51.676;5.808;2022-10-31T15:28:23;19.10;69.70
62583;DHT22;48641;51.676;5.808;2022-10-31T15:30:52;19.10;69.40
62583;DHT22;48641;51.676;5.808;2022-10-31T15:33:39;19.10;69.50
62583;DHT22;48641;51.676;5.808;2022-10-31T15:36:05;19.10;69.30
62583;DHT22;48641;51.676;5.808;2022-10-31T15:38:31;19.10;69.40
62583;DHT22;48641;51.676;5.808;2022-10-31T15:41:18;19.10;69.30
62583;DHT22;48641;51.676;5.808;2022-10-31T15:43:46;19.10;69.30
62583;DHT22;48641;51.676;5.808;2022-10-31T15:46:12;19.10;69.30
62583;DHT22;48641;51.676;5.808;2022-10-31T15:48:38;19.10;69.20
62583;DHT22;48641;51.676;5.808;2022-10-31T15:51:05;19.10;69.20
62583;DHT22;48641;51.676;5.808;2022-10-31T15:56:04;19.10;69.10
62583;DHT22;48641;51.676;5.808;2022-10-31T15:58:33;19.10;69.50
62583;DHT22;48641;51.676;5.808;2022-10-31T16:01:18;19.10;69.60
62583;DHT22;48641;51.676;5.808;2022-10-31T16:03:43;19.10;69.60
62583;DHT22;48641;51.676;5.808;2022-10-31T16:06:20;19.10;69.50
62583;DHT22;48641;51.676;5.808;2022-10-31T16:08:48;19.10;70.20
62583;DHT22;48641;51.676;5.808;2022-10-31T16:16:20;19.10;69.30
62583;DHT22;48641;51.676;5.808;2022-10-31T16:18:48;19.10;69.30
62583;DHT22;48641;51.676;5.808;2022-10-31T16:21:13;19.10;69.30
62583;DHT22;48641;51.676;5.808;2022-10-31T16:23:45;19.10;69.40
62583;DHT22;48641;51.676;5.808;2022-10-31T16:26:18;19.20;69.70
62583;DHT22;48641;51.676;5.808;2022-10-31T16:28:55;19.10;69.60
62583;DHT22;48641;51.676;5.808;2022-10-31T16:31:35;19.20;69.50
62583;DHT22;48641;51.676;5.808;2022-10-31T16:34:04;19.10;69.40
62583;DHT22;48641;51.676;5.808;2022-10-31T16:36:32;19.10;69.40
62583;DHT22;48641;51.676;5.808;2022-10-31T16:38:58;19.10;69.30
62583;DHT22;48641;51.676;5.808;2022-10-31T16:41:25;19.10;69.30
62583;DHT22;48641;51.676;5.808;2022-10-31T16:43:51;19.10;69.20
62583;DHT22;48641;51.676;5.808;2022-10-31T16:46:27;19.10;69.30
62583;DHT22;48641;51.676;5.808;2022-10-31T16:48:53;19.20;69.10
62583;DHT22;48641;51.676;5.808;2022-10-31T16:51:19;19.10;69.30
62583;DHT22;48641;51.676;5.808;2022-10-31T16:53:45;19.10;69.30
62583;DHT22;48641;51.676;5.808;2022-10-31T16:56:21;19.10;69.30
62583;DHT22;48641;51.676;5.808;2022-10-31T16:58:48;19.10;69.20
62583;DHT22;48641;51.676;5.808;2022-10-31T17:01:13;19.10;69.20
62583;DHT22;48641;51.676;5.808;2022-10-31T17:03:39;19.10;69.10
62583;DHT22;48641;51.676;5.808;2022-10-31T17:06:05;19.10;69.10
62583;DHT22;48641;51.676;5.808;2022-10-31T17:08:30;19.10;69.10
62583;DHT22;48641;51.676;5.808;2022-10-31T17:10:57;19.10;69.10
62583;DHT22;48641;51.676;5.808;2022-10-31T17:13:27;19.10;69.00
62583;DHT22;48641;51.676;5.808;2022-10-31T17:15:57;19.10;68.90
62583;DHT22;48641;51.676;5.808;2022-10-31T17:18:23;19.10;68.90
62583;DHT22;48641;51.676;5.808;2022-10-31T17:20:50;19.10;68.90
62583;DHT22;48641;51.676;5.808;2022-10-31T17:23:16;19.10;69.00
62583;DHT22;48641;51.676;5.808;2022-10-31T17:25:43;19.10;68.90
62583;DHT22;48641;51.676;5.808;2022-10-31T17:28:12;19.10;68.90
62583;DHT22;48641;51.676;5.808;2022-10-31T17:30:39;19.10;68.90
62583;DHT22;48641;51.676;5.808;2022-10-31T17:33:06;19.10;68.90
62583;DHT22;48641;51.676;5.808;2022-10-31T17:35:31;19.10;68.90
62583;DHT22;48641;51.676;5.808;2022-10-31T17:37:57;19.10;68.90
62583;DHT22;48641;51.676;5.808;2022-10-31T17:40:23;19.10;68.90
62583;DHT22;48641;51.676;5.808;2022-10-31T17:42:52;19.10;68.90
62583;DHT22;48641;51.676;5.808;2022-10-31T17:45:19;19.10;68.90
62583;DHT22;48641;51.676;5.808;2022-10-31T17:47:50;19.10;68.90
62583;DHT22;48641;51.676;5.808;2022-10-31T17:50:18;19.10;68.80